Weather at Antique Aerodrome

Public forecast

Using degrees Fahrenheit for public forecast. Weather courtesy of forecast.io.

Closest aviation weather report (METAR) to Antique Aerodrome

Closest report is Pontiac Municipal Airport, 5.1 nm (9.5 km) SSE. Retrieved 2020/09/27 03:35 UTC (0 seconds ago):

KPNT 270335Z AUTO 20014G20KT 10SM CLR 21/15 A2975 RMK AO2 T02110146

Closest aviation forecast (TAF) to Antique Aerodrome

Closest forecast is Central Illinois Regional Airport at Bloomington-Normal, 33.8 nm (62.7 km) SSW. Retrieved 2020-09-27 00:42 UTC (2 hours ago):

TAF KBMI 262341Z 2700/2724 19015KT P6SM BKN250 FM270300 19015KT P6SM BKN250 WS020/25045KT FM271400 21012KT P6SM BKN120 FM271700 24008KT P6SM BKN060 FM272100 28006KT P6SM VCSH OVC050